Taguatinga, Brazil
Current Conditions -  °F | °C
As of 2:00 AM on Saturday 20 Dec 2014 (Local Time) from SBPJ Reporting Station
Few Clouds Few Clouds  
Wind Chill: 77°   Ceiling: Unl
Heat Index: 78°   Visibility: 6mi
Dew Point: 72°   Wind: 6mph
Humidity: 83%   Direction: 340°NNW
Pressure: 29.85"   Gusts: NA
Location:  12.41°S, 46.44°W
Report Text: SBPJ 200500Z 34005KT 9999 FEW012 25/22 Q1011
Loading
Personal Weather Stations






























Interactive Weather Map New forecast layout! Learn more

10-Day Weather Forecast

Advertisements
Track Severe Weather on mobile